sensor_id;sensor_type;location;lat;lon;timestamp;P1;durP1;ratioP1;P2;durP2;ratioP2
5878;SDS011;2965;42.640;23.370;2023-08-06T04:02:29;6.40;;;5.90;;
5878;SDS011;2965;42.640;23.370;2023-08-06T04:04:55;5.53;;;5.23;;
5878;SDS011;2965;42.640;23.370;2023-08-06T04:07:20;5.33;;;5.00;;
5878;SDS011;2965;42.640;23.370;2023-08-06T04:09:53;5.17;;;4.80;;
5878;SDS011;2965;42.640;23.370;2023-08-06T04:12:25;5.30;;;4.90;;
5878;SDS011;2965;42.640;23.370;2023-08-06T04:14:51;5.13;;;4.83;;
5878;SDS011;2965;42.640;23.370;2023-08-06T04:17:18;6.23;;;4.20;;
5878;SDS011;2965;42.640;23.370;2023-08-06T04:19:53;5.60;;;5.20;;
5878;SDS011;2965;42.640;23.370;2023-08-06T04:22:19;5.00;;;4.70;;
5878;SDS011;2965;42.640;23.370;2023-08-06T04:24:45;4.97;;;4.67;;
5878;SDS011;2965;42.640;23.370;2023-08-06T04:27:11;5.97;;;5.30;;
5878;SDS011;2965;42.640;23.370;2023-08-06T04:29:37;5.10;;;4.80;;
5878;SDS011;2965;42.640;23.370;2023-08-06T04:32:07;5.70;;;4.93;;
5878;SDS011;2965;42.640;23.370;2023-08-06T04:34:36;8.23;;;5.53;;
5878;SDS011;2965;42.640;23.370;2023-08-06T04:37:02;5.13;;;4.70;;
5878;SDS011;2965;42.640;23.370;2023-08-06T04:39:28;4.97;;;4.57;;
5878;SDS011;2965;42.640;23.370;2023-08-06T04:41:57;5.20;;;4.80;;
5878;SDS011;2965;42.640;23.370;2023-08-06T04:44:22;5.77;;;5.43;;
5878;SDS011;2965;42.640;23.370;2023-08-06T04:46:48;5.53;;;5.03;;
5878;SDS011;2965;42.640;23.370;2023-08-06T04:49:14;6.63;;;5.97;;
5878;SDS011;2965;42.640;23.370;2023-08-06T04:51:39;6.27;;;5.30;;
5878;SDS011;2965;42.640;23.370;2023-08-06T04:54:04;6.13;;;5.53;;
5878;SDS011;2965;42.640;23.370;2023-08-06T04:56:30;5.50;;;5.10;;
5878;SDS011;2965;42.640;23.370;2023-08-06T04:58:55;4.77;;;4.47;;
5878;SDS011;2965;42.640;23.370;2023-08-06T05:01:20;6.47;;;5.00;;
5878;SDS011;2965;42.640;23.370;2023-08-06T05:03:46;13.17;;;5.13;;
5878;SDS011;2965;42.640;23.370;2023-08-06T05:06:12;10.73;;;4.40;;
5878;SDS011;2965;42.640;23.370;2023-08-06T05:08:37;5.40;;;4.90;;
5878;SDS011;2965;42.640;23.370;2023-08-06T05:11:03;5.73;;;5.30;;
5878;SDS011;2965;42.640;23.370;2023-08-06T05:13:28;4.93;;;4.50;;
5878;SDS011;2965;42.640;23.370;2023-08-06T05:15:53;4.53;;;4.23;;
5878;SDS011;2965;42.640;23.370;2023-08-06T05:18:19;4.37;;;4.07;;
5878;SDS011;2965;42.640;23.370;2023-08-06T05:20:45;4.90;;;4.63;;
5878;SDS011;2965;42.640;23.370;2023-08-06T05:23:10;4.87;;;4.40;;
5878;SDS011;2965;42.640;23.370;2023-08-06T05:25:36;7.43;;;5.60;;
5878;SDS011;2965;42.640;23.370;2023-08-06T05:28:02;14.47;;;6.07;;
5878;SDS011;2965;42.640;23.370;2023-08-06T05:30:28;8.40;;;7.70;;
5878;SDS011;2965;42.640;23.370;2023-08-06T05:32:53;6.60;;;6.10;;
5878;SDS011;2965;42.640;23.370;2023-08-06T05:35:18;16.13;;;7.73;;
5878;SDS011;2965;42.640;23.370;2023-08-06T05:37:44;7.60;;;6.80;;
5878;SDS011;2965;42.640;23.370;2023-08-06T05:40:09;7.90;;;7.27;;
5878;SDS011;2965;42.640;23.370;2023-08-06T05:42:35;12.87;;;6.90;;
5878;SDS011;2965;42.640;23.370;2023-08-06T05:45:00;7.30;;;6.80;;
5878;SDS011;2965;42.640;23.370;2023-08-06T05:47:25;10.70;;;7.83;;
5878;SDS011;2965;42.640;23.370;2023-08-06T05:49:51;13.40;;;8.83;;
5878;SDS011;2965;42.640;23.370;2023-08-06T05:52:16;9.77;;;8.77;;
5878;SDS011;2965;42.640;23.370;2023-08-06T05:54:42;10.77;;;6.83;;
5878;SDS011;2965;42.640;23.370;2023-08-06T05:57:07;12.67;;;9.13;;
5878;SDS011;2965;42.640;23.370;2023-08-06T05:59:32;11.40;;;10.20;;
5878;SDS011;2965;42.640;23.370;2023-08-06T14:43:02;4.73;;;4.43;;
5878;SDS011;2965;42.640;23.370;2023-08-06T14:45:30;5.00;;;4.80;;
5878;SDS011;2965;42.640;23.370;2023-08-06T14:47:55;5.10;;;4.90;;
5878;SDS011;2965;42.640;23.370;2023-08-06T14:50:21;5.20;;;4.90;;
5878;SDS011;2965;42.640;23.370;2023-08-06T14:52:46;5.43;;;5.10;;
5878;SDS011;2965;42.640;23.370;2023-08-06T14:55:17;4.90;;;4.50;;
5878;SDS011;2965;42.640;23.370;2023-08-06T14:57:47;5.10;;;4.70;;
5878;SDS011;2965;42.640;23.370;2023-08-06T15:00:13;5.37;;;5.00;;
5878;SDS011;2965;42.640;23.370;2023-08-06T15:02:38;5.23;;;4.43;;
5878;SDS011;2965;42.640;23.370;2023-08-06T15:05:04;4.33;;;4.13;;
5878;SDS011;2965;42.640;23.370;2023-08-06T15:07:29;4.90;;;4.70;;
5878;SDS011;2965;42.640;23.370;2023-08-06T15:09:58;4.90;;;4.50;;
5878;SDS011;2965;42.640;23.370;2023-08-06T15:12:23;4.43;;;4.13;;
5878;SDS011;2965;42.640;23.370;2023-08-06T15:14:49;4.17;;;3.87;;
5878;SDS011;2965;42.640;23.370;2023-08-06T15:17:14;7.80;;;4.13;;
5878;SDS011;2965;42.640;23.370;2023-08-06T15:19:39;4.20;;;4.00;;
5878;SDS011;2965;42.640;23.370;2023-08-06T15:22:05;4.43;;;4.00;;
5878;SDS011;2965;42.640;23.370;2023-08-06T15:24:30;4.83;;;4.67;;
5878;SDS011;2965;42.640;23.370;2023-08-06T15:26:56;4.83;;;4.50;;
5878;SDS011;2965;42.640;23.370;2023-08-06T15:29:21;8.67;;;4.93;;
5878;SDS011;2965;42.640;23.370;2023-08-06T15:31:47;4.33;;;4.13;;
5878;SDS011;2965;42.640;23.370;2023-08-06T15:34:12;4.27;;;4.13;;
5878;SDS011;2965;42.640;23.370;2023-08-06T15:36:37;5.27;;;4.80;;
5878;SDS011;2965;42.640;23.370;2023-08-06T15:39:03;4.90;;;4.80;;
5878;SDS011;2965;42.640;23.370;2023-08-06T15:41:31;4.70;;;4.60;;
5878;SDS011;2965;42.640;23.370;2023-08-06T15:43:56;5.10;;;4.80;;
5878;SDS011;2965;42.640;23.370;2023-08-06T15:46:22;4.80;;;4.50;;
5878;SDS011;2965;42.640;23.370;2023-08-06T15:48:47;4.47;;;4.30;;
5878;SDS011;2965;42.640;23.370;2023-08-06T15:51:13;4.93;;;4.63;;
5878;SDS011;2965;42.640;23.370;2023-08-06T15:53:38;5.13;;;4.60;;
5878;SDS011;2965;42.640;23.370;2023-08-06T15:56:03;4.40;;;4.20;;
5878;SDS011;2965;42.640;23.370;2023-08-06T15:58:30;4.87;;;4.67;;
5878;SDS011;2965;42.640;23.370;2023-08-06T16:00:56;4.60;;;4.40;;
5878;SDS011;2965;42.640;23.370;2023-08-06T16:03:22;4.50;;;4.30;;
5878;SDS011;2965;42.640;23.370;2023-08-06T16:05:48;3.93;;;3.80;;
5878;SDS011;2965;42.640;23.370;2023-08-06T16:08:13;4.50;;;4.40;;
5878;SDS011;2965;42.640;23.370;2023-08-06T16:10:39;4.60;;;4.40;;
5878;SDS011;2965;42.640;23.370;2023-08-06T16:13:09;4.40;;;4.20;;
5878;SDS011;2965;42.640;23.370;2023-08-06T16:15:34;4.50;;;4.10;;
5878;SDS011;2965;42.640;23.370;2023-08-06T16:17:59;4.77;;;4.40;;
5878;SDS011;2965;42.640;23.370;2023-08-06T16:20:25;4.97;;;4.53;;
5878;SDS011;2965;42.640;23.370;2023-08-06T16:22:51;4.33;;;4.23;;
5878;SDS011;2965;42.640;23.370;2023-08-06T16:25:16;4.20;;;4.10;;
5878;SDS011;2965;42.640;23.370;2023-08-06T16:27:41;4.30;;;3.53;;
5878;SDS011;2965;42.640;23.370;2023-08-06T16:30:07;3.23;;;1.93;;
5878;SDS011;2965;42.640;23.370;2023-08-06T16:32:33;2.30;;;2.00;;
5878;SDS011;2965;42.640;23.370;2023-08-06T16:34:58;4.17;;;2.37;;
5878;SDS011;2965;42.640;23.370;2023-08-06T16:37:24;3.67;;;2.73;;
5878;SDS011;2965;42.640;23.370;2023-08-06T16:39:49;2.97;;;2.87;;
5878;SDS011;2965;42.640;23.370;2023-08-06T16:42:14;3.60;;;2.47;;
5878;SDS011;2965;42.640;23.370;2023-08-06T16:44:40;2.30;;;2.20;;
5878;SDS011;2965;42.640;23.370;2023-08-06T16:47:05;1.80;;;1.70;;
5878;SDS011;2965;42.640;23.370;2023-08-06T16:49:31;4.83;;;1.90;;
5878;SDS011;2965;42.640;23.370;2023-08-06T16:51:56;3.93;;;2.27;;
5878;SDS011;2965;42.640;23.370;2023-08-06T16:54:22;1.70;;;1.60;;
5878;SDS011;2965;42.640;23.370;2023-08-06T16:56:47;2.03;;;1.93;;
5878;SDS011;2965;42.640;23.370;2023-08-06T16:59:12;6.03;;;1.83;;
5878;SDS011;2965;42.640;23.370;2023-08-06T17:01:38;8.53;;;1.97;;
5878;SDS011;2965;42.640;23.370;2023-08-06T17:04:04;2.90;;;1.93;;
5878;SDS011;2965;42.640;23.370;2023-08-06T17:06:30;1.53;;;1.43;;
5878;SDS011;2965;42.640;23.370;2023-08-06T17:08:55;1.20;;;1.20;;
5878;SDS011;2965;42.640;23.370;2023-08-06T17:11:20;1.40;;;1.30;;
5878;SDS011;2965;42.640;23.370;2023-08-06T17:13:46;1.43;;;1.33;;
5878;SDS011;2965;42.640;23.370;2023-08-06T17:16:12;1.33;;;1.23;;
5878;SDS011;2965;42.640;23.370;2023-08-06T17:18:37;1.20;;;1.10;;
5878;SDS011;2965;42.640;23.370;2023-08-06T17:21:04;4.70;;;1.77;;
5878;SDS011;2965;42.640;23.370;2023-08-06T17:23:30;1.40;;;1.30;;
5878;SDS011;2965;42.640;23.370;2023-08-06T17:25:55;1.80;;;1.70;;
5878;SDS011;2965;42.640;23.370;2023-08-06T17:28:20;1.50;;;1.40;;
5878;SDS011;2965;42.640;23.370;2023-08-06T17:30:46;3.03;;;1.33;;
5878;SDS011;2965;42.640;23.370;2023-08-06T17:33:11;1.50;;;1.40;;
5878;SDS011;2965;42.640;23.370;2023-08-06T17:35:40;2.27;;;1.80;;
5878;SDS011;2965;42.640;23.370;2023-08-06T17:38:06;1.73;;;1.63;;
5878;SDS011;2965;42.640;23.370;2023-08-06T17:40:31;2.33;;;1.80;;
5878;SDS011;2965;42.640;23.370;2023-08-06T17:42:56;1.77;;;1.67;;
5878;SDS011;2965;42.640;23.370;2023-08-06T17:45:22;1.23;;;1.13;;
5878;SDS011;2965;42.640;23.370;2023-08-06T17:47:48;1.80;;;1.70;;
5878;SDS011;2965;42.640;23.370;2023-08-06T17:50:14;1.60;;;1.50;;
5878;SDS011;2965;42.640;23.370;2023-08-06T17:52:39;3.43;;;2.03;;
5878;SDS011;2965;42.640;23.370;2023-08-06T17:55:05;1.40;;;1.20;;
5878;SDS011;2965;42.640;23.370;2023-08-06T17:57:31;1.93;;;1.60;;
5878;SDS011;2965;42.640;23.370;2023-08-06T17:59:56;1.47;;;1.37;;
5878;SDS011;2965;42.640;23.370;2023-08-06T18:02:22;2.30;;;1.57;;
5878;SDS011;2965;42.640;23.370;2023-08-06T18:04:47;2.67;;;1.70;;
5878;SDS011;2965;42.640;23.370;2023-08-06T18:07:13;2.07;;;1.63;;
5878;SDS011;2965;42.640;23.370;2023-08-06T18:09:38;1.13;;;1.13;;
5878;SDS011;2965;42.640;23.370;2023-08-06T18:12:04;1.33;;;1.23;;
5878;SDS011;2965;42.640;23.370;2023-08-06T18:14:29;1.80;;;1.70;;
5878;SDS011;2965;42.640;23.370;2023-08-06T18:16:55;5.60;;;1.50;;
5878;SDS011;2965;42.640;23.370;2023-08-06T18:19:20;1.93;;;1.83;;
5878;SDS011;2965;42.640;23.370;2023-08-06T18:21:47;2.20;;;1.40;;
5878;SDS011;2965;42.640;23.370;2023-08-06T18:24:12;1.67;;;1.57;;
5878;SDS011;2965;42.640;23.370;2023-08-06T18:26:37;1.47;;;1.37;;
5878;SDS011;2965;42.640;23.370;2023-08-06T18:29:03;1.37;;;1.27;;
5878;SDS011;2965;42.640;23.370;2023-08-06T18:31:28;1.87;;;1.77;;
5878;SDS011;2965;42.640;23.370;2023-08-06T18:33:54;2.00;;;1.90;;
5878;SDS011;2965;42.640;23.370;2023-08-06T18:36:20;1.60;;;1.50;;
5878;SDS011;2965;42.640;23.370;2023-08-06T18:38:45;1.50;;;1.40;;
5878;SDS011;2965;42.640;23.370;2023-08-06T18:41:14;2.83;;;1.33;;
5878;SDS011;2965;42.640;23.370;2023-08-06T18:43:40;2.00;;;1.90;;
5878;SDS011;2965;42.640;23.370;2023-08-06T18:46:05;3.33;;;1.30;;
5878;SDS011;2965;42.640;23.370;2023-08-06T18:48:31;1.50;;;1.40;;
5878;SDS011;2965;42.640;23.370;2023-08-06T18:50:56;1.53;;;1.43;;
5878;SDS011;2965;42.640;23.370;2023-08-06T18:53:22;1.17;;;1.07;;
5878;SDS011;2965;42.640;23.370;2023-08-06T18:55:48;1.23;;;1.13;;
5878;SDS011;2965;42.640;23.370;2023-08-06T18:58:15;1.40;;;1.30;;
5878;SDS011;2965;42.640;23.370;2023-08-06T19:00:41;2.90;;;1.20;;
5878;SDS011;2965;42.640;23.370;2023-08-06T19:03:07;2.33;;;2.13;;
5878;SDS011;2965;42.640;23.370;2023-08-06T19:05:36;1.40;;;1.30;;
5878;SDS011;2965;42.640;23.370;2023-08-06T19:08:03;1.30;;;1.20;;
5878;SDS011;2965;42.640;23.370;2023-08-06T19:10:29;1.10;;;1.10;;
5878;SDS011;2965;42.640;23.370;2023-08-06T19:12:57;0.97;;;0.97;;
5878;SDS011;2965;42.640;23.370;2023-08-06T19:15:23;1.00;;;1.00;;
5878;SDS011;2965;42.640;23.370;2023-08-06T19:17:48;1.40;;;1.30;;
5878;SDS011;2965;42.640;23.370;2023-08-06T19:20:14;2.27;;;1.77;;
5878;SDS011;2965;42.640;23.370;2023-08-06T19:22:40;3.20;;;1.60;;
5878;SDS011;2965;42.640;23.370;2023-08-06T19:25:05;1.50;;;1.40;;
5878;SDS011;2965;42.640;23.370;2023-08-06T19:27:31;1.60;;;1.50;;
5878;SDS011;2965;42.640;23.370;2023-08-06T19:29:56;8.57;;;3.83;;
5878;SDS011;2965;42.640;23.370;2023-08-06T19:32:21;5.37;;;2.10;;
5878;SDS011;2965;42.640;23.370;2023-08-06T19:34:47;1.90;;;1.80;;
5878;SDS011;2965;42.640;23.370;2023-08-06T19:37:12;11.53;;;2.70;;
5878;SDS011;2965;42.640;23.370;2023-08-06T19:39:38;1.30;;;1.20;;
5878;SDS011;2965;42.640;23.370;2023-08-06T19:42:04;1.40;;;1.30;;
5878;SDS011;2965;42.640;23.370;2023-08-06T19:44:29;5.80;;;2.33;;
5878;SDS011;2965;42.640;23.370;2023-08-06T19:46:55;1.40;;;1.30;;
5878;SDS011;2965;42.640;23.370;2023-08-06T19:49:20;1.47;;;0.50;;
5878;SDS011;2965;42.640;23.370;2023-08-06T19:51:45;0.70;;;0.57;;
5878;SDS011;2965;42.640;23.370;2023-08-06T19:54:11;5.00;;;0.50;;
5878;SDS011;2965;42.640;23.370;2023-08-06T19:56:36;1.20;;;0.60;;
5878;SDS011;2965;42.640;23.370;2023-08-06T19:59:02;1.00;;;0.60;;
5878;SDS011;2965;42.640;23.370;2023-08-06T20:01:28;0.80;;;0.70;;
5878;SDS011;2965;42.640;23.370;2023-08-06T20:03:55;3.10;;;0.70;;
5878;SDS011;2965;42.640;23.370;2023-08-06T20:06:21;6.20;;;0.90;;
5878;SDS011;2965;42.640;23.370;2023-08-06T20:08:54;1.27;;;0.60;;
5878;SDS011;2965;42.640;23.370;2023-08-06T20:11:20;0.80;;;0.80;;
5878;SDS011;2965;42.640;23.370;2023-08-06T20:13:46;0.70;;;0.60;;
5878;SDS011;2965;42.640;23.370;2023-08-06T20:16:11;1.10;;;0.80;;
5878;SDS011;2965;42.640;23.370;2023-08-06T20:18:38;3.17;;;0.90;;
5878;SDS011;2965;42.640;23.370;2023-08-06T20:21:04;0.70;;;0.60;;
5878;SDS011;2965;42.640;23.370;2023-08-06T20:23:30;0.83;;;0.77;;
5878;SDS011;2965;42.640;23.370;2023-08-06T20:25:55;0.80;;;0.70;;
5878;SDS011;2965;42.640;23.370;2023-08-06T20:28:21;0.90;;;0.90;;
5878;SDS011;2965;42.640;23.370;2023-08-06T20:30:46;0.70;;;0.60;;
5878;SDS011;2965;42.640;23.370;2023-08-06T20:33:12;0.80;;;0.80;;
5878;SDS011;2965;42.640;23.370;2023-08-06T20:35:38;1.10;;;1.00;;
5878;SDS011;2965;42.640;23.370;2023-08-06T20:38:05;0.80;;;0.73;;
5878;SDS011;2965;42.640;23.370;2023-08-06T20:40:30;1.63;;;1.53;;
5878;SDS011;2965;42.640;23.370;2023-08-06T20:42:56;1.23;;;1.23;;
5878;SDS011;2965;42.640;23.370;2023-08-06T20:45:21;3.70;;;2.13;;
5878;SDS011;2965;42.640;23.370;2023-08-06T20:47:46;2.10;;;1.80;;
5878;SDS011;2965;42.640;23.370;2023-08-06T20:50:12;2.43;;;2.30;;
5878;SDS011;2965;42.640;23.370;2023-08-06T20:52:37;2.60;;;1.50;;
5878;SDS011;2965;42.640;23.370;2023-08-06T20:55:02;3.90;;;2.83;;
5878;SDS011;2965;42.640;23.370;2023-08-06T20:57:28;5.13;;;0.90;;
5878;SDS011;2965;42.640;23.370;2023-08-06T20:59:53;1.53;;;1.10;;
